sensor_id;sensor_type;location;lat;lon;timestamp;pressure;altitude;pressure_sealevel;temperature
14851;BMP180;7517;48.400;11.770;2023-11-22T00:00:06;96477.00;;;11.70
14851;BMP180;7517;48.400;11.770;2023-11-22T00:02:33;96475.00;;;11.70
14851;BMP180;7517;48.400;11.770;2023-11-22T00:05:02;96476.00;;;11.70
14851;BMP180;7517;48.400;11.770;2023-11-22T00:07:30;96474.00;;;11.70
14851;BMP180;7517;48.400;11.770;2023-11-22T00:09:58;96469.00;;;11.70
14851;BMP180;7517;48.400;11.770;2023-11-22T00:12:27;96477.00;;;11.70
14851;BMP180;7517;48.400;11.770;2023-11-22T00:15:03;96479.00;;;11.70
14851;BMP180;7517;48.400;11.770;2023-11-22T00:17:31;96475.00;;;11.70
14851;BMP180;7517;48.400;11.770;2023-11-22T00:20:01;96491.00;;;11.70
14851;BMP180;7517;48.400;11.770;2023-11-22T00:22:31;96477.00;;;11.70
14851;BMP180;7517;48.400;11.770;2023-11-22T00:24:58;96474.00;;;11.60
14851;BMP180;7517;48.400;11.770;2023-11-22T00:27:27;96486.00;;;11.60
14851;BMP180;7517;48.400;11.770;2023-11-22T00:29:55;96490.00;;;11.60
14851;BMP180;7517;48.400;11.770;2023-11-22T00:32:23;96488.00;;;11.60
14851;BMP180;7517;48.400;11.770;2023-11-22T00:34:51;96479.00;;;11.50
14851;BMP180;7517;48.400;11.770;2023-11-22T00:37:20;96495.00;;;11.40
14851;BMP180;7517;48.400;11.770;2023-11-22T00:39:48;96496.00;;;11.40
14851;BMP180;7517;48.400;11.770;2023-11-22T00:42:15;96492.00;;;11.40
14851;BMP180;7517;48.400;11.770;2023-11-22T00:44:46;96497.00;;;11.30
14851;BMP180;7517;48.400;11.770;2023-11-22T00:47:13;96499.00;;;11.30
14851;BMP180;7517;48.400;11.770;2023-11-22T00:49:42;96505.00;;;11.20
14851;BMP180;7517;48.400;11.770;2023-11-22T00:52:09;96510.00;;;11.20
14851;BMP180;7517;48.400;11.770;2023-11-22T00:54:38;96507.00;;;11.10
14851;BMP180;7517;48.400;11.770;2023-11-22T00:57:06;96509.00;;;11.10
14851;BMP180;7517;48.400;11.770;2023-11-22T00:59:34;96513.00;;;11.00
14851;BMP180;7517;48.400;11.770;2023-11-22T01:02:01;96524.00;;;11.00
14851;BMP180;7517;48.400;11.770;2023-11-22T01:04:31;96524.00;;;10.90
14851;BMP180;7517;48.400;11.770;2023-11-22T01:07:00;96529.00;;;10.90
14851;BMP180;7517;48.400;11.770;2023-11-22T01:09:27;96533.00;;;10.80
14851;BMP180;7517;48.400;11.770;2023-11-22T01:11:56;96541.00;;;10.80
14851;BMP180;7517;48.400;11.770;2023-11-22T01:14:23;96548.00;;;10.70
14851;BMP180;7517;48.400;11.770;2023-11-22T01:16:52;96543.00;;;10.60
14851;BMP180;7517;48.400;11.770;2023-11-22T01:19:19;96539.00;;;10.50
14851;BMP180;7517;48.400;11.770;2023-11-22T01:21:46;96538.00;;;10.30
14851;BMP180;7517;48.400;11.770;2023-11-22T01:24:14;96545.00;;;10.20
14851;BMP180;7517;48.400;11.770;2023-11-22T01:26:42;96549.00;;;10.10
14851;BMP180;7517;48.400;11.770;2023-11-22T01:29:11;96536.00;;;10.00
14851;BMP180;7517;48.400;11.770;2023-11-22T01:31:39;96549.00;;;9.90
14851;BMP180;7517;48.400;11.770;2023-11-22T01:34:07;96551.00;;;9.70
14851;BMP180;7517;48.400;11.770;2023-11-22T01:36:35;96554.00;;;9.60
14851;BMP180;7517;48.400;11.770;2023-11-22T01:39:02;96561.00;;;9.60
14851;BMP180;7517;48.400;11.770;2023-11-22T01:41:29;96561.00;;;9.50
14851;BMP180;7517;48.400;11.770;2023-11-22T01:43:56;96563.00;;;9.40
14851;BMP180;7517;48.400;11.770;2023-11-22T01:46:25;96572.00;;;9.40
14851;BMP180;7517;48.400;11.770;2023-11-22T01:48:54;96574.00;;;9.30
14851;BMP180;7517;48.400;11.770;2023-11-22T01:51:22;96581.00;;;9.30
14851;BMP180;7517;48.400;11.770;2023-11-22T01:53:53;96578.00;;;9.20
14851;BMP180;7517;48.400;11.770;2023-11-22T01:56:25;96574.00;;;9.20
14851;BMP180;7517;48.400;11.770;2023-11-22T01:58:55;96571.00;;;9.10
14851;BMP180;7517;48.400;11.770;2023-11-22T02:01:25;96578.00;;;9.00
14851;BMP180;7517;48.400;11.770;2023-11-22T02:03:52;96575.00;;;9.00
14851;BMP180;7517;48.400;11.770;2023-11-22T02:06:20;96578.00;;;8.90
14851;BMP180;7517;48.400;11.770;2023-11-22T02:08:48;96573.00;;;8.90
14851;BMP180;7517;48.400;11.770;2023-11-22T02:11:18;96583.00;;;8.80
14851;BMP180;7517;48.400;11.770;2023-11-22T02:13:47;96590.00;;;8.80
14851;BMP180;7517;48.400;11.770;2023-11-22T02:16:15;96585.00;;;8.70
14851;BMP180;7517;48.400;11.770;2023-11-22T02:18:46;96591.00;;;8.70
14851;BMP180;7517;48.400;11.770;2023-11-22T02:21:16;96581.00;;;8.60
14851;BMP180;7517;48.400;11.770;2023-11-22T02:23:45;96595.00;;;8.50
14851;BMP180;7517;48.400;11.770;2023-11-22T02:26:12;96595.00;;;8.50
14851;BMP180;7517;48.400;11.770;2023-11-22T02:28:41;96595.00;;;8.50
14851;BMP180;7517;48.400;11.770;2023-11-22T02:31:08;96592.00;;;8.40
14851;BMP180;7517;48.400;11.770;2023-11-22T02:33:36;96592.00;;;8.40
14851;BMP180;7517;48.400;11.770;2023-11-22T02:36:04;96599.00;;;8.30
14851;BMP180;7517;48.400;11.770;2023-11-22T02:38:31;96592.00;;;8.30
14851;BMP180;7517;48.400;11.770;2023-11-22T02:41:01;96600.00;;;8.20
14851;BMP180;7517;48.400;11.770;2023-11-22T02:43:30;96600.00;;;8.20
14851;BMP180;7517;48.400;11.770;2023-11-22T02:45:57;96598.00;;;8.10
14851;BMP180;7517;48.400;11.770;2023-11-22T02:48:24;96595.00;;;8.10
14851;BMP180;7517;48.400;11.770;2023-11-22T02:50:53;96594.00;;;8.10
14851;BMP180;7517;48.400;11.770;2023-11-22T02:53:21;96592.00;;;8.10
14851;BMP180;7517;48.400;11.770;2023-11-22T02:55:48;96595.00;;;8.10
14851;BMP180;7517;48.400;11.770;2023-11-22T02:58:17;96597.00;;;8.10
14851;BMP180;7517;48.400;11.770;2023-11-22T03:00:44;96598.00;;;8.10
14851;BMP180;7517;48.400;11.770;2023-11-22T03:03:12;96605.00;;;8.10
14851;BMP180;7517;48.400;11.770;2023-11-22T03:05:39;96605.00;;;8.10
14851;BMP180;7517;48.400;11.770;2023-11-22T03:08:06;96606.00;;;8.10
14851;BMP180;7517;48.400;11.770;2023-11-22T03:10:35;96603.00;;;8.10
14851;BMP180;7517;48.400;11.770;2023-11-22T03:13:02;96605.00;;;8.10
14851;BMP180;7517;48.400;11.770;2023-11-22T03:15:32;96602.00;;;8.10
14851;BMP180;7517;48.400;11.770;2023-11-22T03:17:59;96608.00;;;8.00
14851;BMP180;7517;48.400;11.770;2023-11-22T03:20:27;96613.00;;;8.00
14851;BMP180;7517;48.400;11.770;2023-11-22T03:22:54;96614.00;;;8.00
14851;BMP180;7517;48.400;11.770;2023-11-22T03:25:21;96611.00;;;8.10
14851;BMP180;7517;48.400;11.770;2023-11-22T03:27:49;96604.00;;;8.10
14851;BMP180;7517;48.400;11.770;2023-11-22T03:30:17;96603.00;;;8.10
14851;BMP180;7517;48.400;11.770;2023-11-22T03:32:47;96611.00;;;8.10
14851;BMP180;7517;48.400;11.770;2023-11-22T03:35:15;96604.00;;;8.10
14851;BMP180;7517;48.400;11.770;2023-11-22T03:37:43;96614.00;;;8.00
14851;BMP180;7517;48.400;11.770;2023-11-22T03:40:11;96617.00;;;8.00
14851;BMP180;7517;48.400;11.770;2023-11-22T03:42:40;96616.00;;;8.00
14851;BMP180;7517;48.400;11.770;2023-11-22T03:45:09;96620.00;;;8.00
14851;BMP180;7517;48.400;11.770;2023-11-22T03:47:38;96621.00;;;8.10
14851;BMP180;7517;48.400;11.770;2023-11-22T03:50:08;96631.00;;;8.00
14851;BMP180;7517;48.400;11.770;2023-11-22T03:52:35;96648.00;;;8.00
14851;BMP180;7517;48.400;11.770;2023-11-22T03:55:04;96647.00;;;8.00
14851;BMP180;7517;48.400;11.770;2023-11-22T03:57:31;96655.00;;;8.00
14851;BMP180;7517;48.400;11.770;2023-11-22T03:59:58;96660.00;;;8.00
14851;BMP180;7517;48.400;11.770;2023-11-22T04:02:25;96660.00;;;8.00
14851;BMP180;7517;48.400;11.770;2023-11-22T04:04:55;96663.00;;;8.00
14851;BMP180;7517;48.400;11.770;2023-11-22T04:07:24;96668.00;;;8.00
14851;BMP180;7517;48.400;11.770;2023-11-22T04:09:51;96676.00;;;8.00
14851;BMP180;7517;48.400;11.770;2023-11-22T04:12:19;96668.00;;;8.00
14851;BMP180;7517;48.400;11.770;2023-11-22T04:14:46;96670.00;;;8.00
14851;BMP180;7517;48.400;11.770;2023-11-22T04:17:14;96677.00;;;8.00
14851;BMP180;7517;48.400;11.770;2023-11-22T04:19:41;96691.00;;;8.00
14851;BMP180;7517;48.400;11.770;2023-11-22T04:22:09;96695.00;;;8.00
14851;BMP180;7517;48.400;11.770;2023-11-22T04:24:38;96695.00;;;8.00
14851;BMP180;7517;48.400;11.770;2023-11-22T04:27:05;96699.00;;;8.00
14851;BMP180;7517;48.400;11.770;2023-11-22T04:29:33;96695.00;;;8.00
14851;BMP180;7517;48.400;11.770;2023-11-22T04:32:00;96697.00;;;8.00
14851;BMP180;7517;48.400;11.770;2023-11-22T04:34:28;96696.00;;;8.00
14851;BMP180;7517;48.400;11.770;2023-11-22T04:36:55;96692.00;;;8.00
14851;BMP180;7517;48.400;11.770;2023-11-22T04:39:23;96702.00;;;8.00
14851;BMP180;7517;48.400;11.770;2023-11-22T04:41:51;96705.00;;;8.00
14851;BMP180;7517;48.400;11.770;2023-11-22T04:44:18;96713.00;;;8.10
14851;BMP180;7517;48.400;11.770;2023-11-22T04:46:46;96717.00;;;8.10
14851;BMP180;7517;48.400;11.770;2023-11-22T04:49:13;96721.00;;;8.00
14851;BMP180;7517;48.400;11.770;2023-11-22T04:51:40;96731.00;;;8.00
14851;BMP180;7517;48.400;11.770;2023-11-22T04:54:09;96728.00;;;8.00
14851;BMP180;7517;48.400;11.770;2023-11-22T04:56:36;96732.00;;;8.00
14851;BMP180;7517;48.400;11.770;2023-11-22T04:59:05;96732.00;;;8.00
14851;BMP180;7517;48.400;11.770;2023-11-22T05:01:33;96739.00;;;8.00
14851;BMP180;7517;48.400;11.770;2023-11-22T05:04:01;96735.00;;;8.00
14851;BMP180;7517;48.400;11.770;2023-11-22T05:06:28;96747.00;;;8.00
14851;BMP180;7517;48.400;11.770;2023-11-22T05:08:55;96739.00;;;8.00
14851;BMP180;7517;48.400;11.770;2023-11-22T05:11:23;96732.00;;;8.00
14851;BMP180;7517;48.400;11.770;2023-11-22T05:13:50;96744.00;;;8.00
14851;BMP180;7517;48.400;11.770;2023-11-22T05:16:19;96742.00;;;7.90
14851;BMP180;7517;48.400;11.770;2023-11-22T05:18:46;96763.00;;;7.90
14851;BMP180;7517;48.400;11.770;2023-11-22T05:21:14;96769.00;;;7.90
14851;BMP180;7517;48.400;11.770;2023-11-22T05:23:41;96769.00;;;7.90
14851;BMP180;7517;48.400;11.770;2023-11-22T05:26:08;96768.00;;;7.90
14851;BMP180;7517;48.400;11.770;2023-11-22T05:28:36;96776.00;;;7.90
14851;BMP180;7517;48.400;11.770;2023-11-22T05:31:03;96773.00;;;7.90
14851;BMP180;7517;48.400;11.770;2023-11-22T05:33:32;96770.00;;;7.90
14851;BMP180;7517;48.400;11.770;2023-11-22T05:36:00;96772.00;;;7.90
14851;BMP180;7517;48.400;11.770;2023-11-22T05:38:27;96773.00;;;7.90
14851;BMP180;7517;48.400;11.770;2023-11-22T05:40:54;96783.00;;;7.90
14851;BMP180;7517;48.400;11.770;2023-11-22T05:43:21;96796.00;;;7.90
14851;BMP180;7517;48.400;11.770;2023-11-22T05:45:52;96793.00;;;7.90
14851;BMP180;7517;48.400;11.770;2023-11-22T05:48:19;96800.00;;;7.90
14851;BMP180;7517;48.400;11.770;2023-11-22T05:50:49;96802.00;;;7.80
14851;BMP180;7517;48.400;11.770;2023-11-22T05:53:16;96808.00;;;7.80
14851;BMP180;7517;48.400;11.770;2023-11-22T05:55:45;96820.00;;;7.80
14851;BMP180;7517;48.400;11.770;2023-11-22T05:58:14;96816.00;;;7.80
14851;BMP180;7517;48.400;11.770;2023-11-22T06:00:42;96818.00;;;7.70
14851;BMP180;7517;48.400;11.770;2023-11-22T06:03:10;96816.00;;;7.70
14851;BMP180;7517;48.400;11.770;2023-11-22T06:05:38;96818.00;;;7.70
14851;BMP180;7517;48.400;11.770;2023-11-22T06:08:07;96819.00;;;7.70
14851;BMP180;7517;48.400;11.770;2023-11-22T06:10:35;96827.00;;;7.70
14851;BMP180;7517;48.400;11.770;2023-11-22T06:13:03;96827.00;;;7.70
14851;BMP180;7517;48.400;11.770;2023-11-22T06:15:31;96832.00;;;7.70
14851;BMP180;7517;48.400;11.770;2023-11-22T06:17:58;96841.00;;;7.70
14851;BMP180;7517;48.400;11.770;2023-11-22T06:20:25;96836.00;;;7.70
14851;BMP180;7517;48.400;11.770;2023-11-22T06:22:53;96841.00;;;7.70
14851;BMP180;7517;48.400;11.770;2023-11-22T06:25:22;96838.00;;;7.70
14851;BMP180;7517;48.400;11.770;2023-11-22T06:27:49;96838.00;;;7.70
14851;BMP180;7517;48.400;11.770;2023-11-22T06:30:16;96832.00;;;7.70
14851;BMP180;7517;48.400;11.770;2023-11-22T06:32:44;96834.00;;;7.70
14851;BMP180;7517;48.400;11.770;2023-11-22T06:35:11;96838.00;;;7.70
14851;BMP180;7517;48.400;11.770;2023-11-22T06:37:40;96843.00;;;7.70
14851;BMP180;7517;48.400;11.770;2023-11-22T06:40:09;96844.00;;;7.80
14851;BMP180;7517;48.400;11.770;2023-11-22T06:42:39;96850.00;;;7.80
14851;BMP180;7517;48.400;11.770;2023-11-22T06:45:09;96854.00;;;7.80
14851;BMP180;7517;48.400;11.770;2023-11-22T06:47:38;96859.00;;;7.90
14851;BMP180;7517;48.400;11.770;2023-11-22T06:50:07;96871.00;;;8.00
14851;BMP180;7517;48.400;11.770;2023-11-22T06:52:36;96888.00;;;8.00
14851;BMP180;7517;48.400;11.770;2023-11-22T06:55:04;96892.00;;;8.00
14851;BMP180;7517;48.400;11.770;2023-11-22T06:57:33;96894.00;;;8.00
14851;BMP180;7517;48.400;11.770;2023-11-22T07:00:03;96895.00;;;8.00
14851;BMP180;7517;48.400;11.770;2023-11-22T07:02:31;96892.00;;;8.10
14851;BMP180;7517;48.400;11.770;2023-11-22T07:04:58;96894.00;;;8.10
14851;BMP180;7517;48.400;11.770;2023-11-22T07:07:26;96889.00;;;8.10
14851;BMP180;7517;48.400;11.770;2023-11-22T07:09:54;96889.00;;;8.10
14851;BMP180;7517;48.400;11.770;2023-11-22T07:12:22;96894.00;;;8.10
14851;BMP180;7517;48.400;11.770;2023-11-22T07:14:49;96895.00;;;8.10
14851;BMP180;7517;48.400;11.770;2023-11-22T07:17:18;96896.00;;;8.10
14851;BMP180;7517;48.400;11.770;2023-11-22T07:19:47;96910.00;;;8.10
14851;BMP180;7517;48.400;11.770;2023-11-22T07:22:15;96923.00;;;8.10
14851;BMP180;7517;48.400;11.770;2023-11-22T07:24:48;96924.00;;;8.10
14851;BMP180;7517;48.400;11.770;2023-11-22T07:27:17;96932.00;;;8.10
14851;BMP180;7517;48.400;11.770;2023-11-22T07:29:45;96942.00;;;8.10
14851;BMP180;7517;48.400;11.770;2023-11-22T07:32:13;96953.00;;;8.10
14851;BMP180;7517;48.400;11.770;2023-11-22T07:34:43;96955.00;;;8.10
14851;BMP180;7517;48.400;11.770;2023-11-22T07:37:10;96959.00;;;8.10
14851;BMP180;7517;48.400;11.770;2023-11-22T07:39:38;96959.00;;;8.10
14851;BMP180;7517;48.400;11.770;2023-11-22T07:42:06;96969.00;;;8.10
14851;BMP180;7517;48.400;11.770;2023-11-22T07:44:34;96969.00;;;8.10
14851;BMP180;7517;48.400;11.770;2023-11-22T07:47:03;96979.00;;;8.10
14851;BMP180;7517;48.400;11.770;2023-11-22T07:49:33;96984.00;;;8.00
14851;BMP180;7517;48.400;11.770;2023-11-22T07:52:04;96978.00;;;8.00
14851;BMP180;7517;48.400;11.770;2023-11-22T07:54:32;96971.00;;;8.00
14851;BMP180;7517;48.400;11.770;2023-11-22T07:57:01;96976.00;;;8.00
14851;BMP180;7517;48.400;11.770;2023-11-22T07:59:28;96984.00;;;8.00
14851;BMP180;7517;48.400;11.770;2023-11-22T08:01:56;96988.00;;;8.00
14851;BMP180;7517;48.400;11.770;2023-11-22T08:04:27;97006.00;;;7.90
14851;BMP180;7517;48.400;11.770;2023-11-22T08:06:58;97010.00;;;7.90
14851;BMP180;7517;48.400;11.770;2023-11-22T08:09:28;97011.00;;;7.90
14851;BMP180;7517;48.400;11.770;2023-11-22T08:11:58;97021.00;;;7.90
14851;BMP180;7517;48.400;11.770;2023-11-22T08:14:27;97012.00;;;7.90
14851;BMP180;7517;48.400;11.770;2023-11-22T08:16:54;97025.00;;;7.80
14851;BMP180;7517;48.400;11.770;2023-11-22T08:19:22;97030.00;;;7.80
14851;BMP180;7517;48.400;11.770;2023-11-22T08:21:50;97013.00;;;7.80
14851;BMP180;7517;48.400;11.770;2023-11-22T08:24:18;97013.00;;;7.80
14851;BMP180;7517;48.400;11.770;2023-11-22T08:26:47;97022.00;;;7.90
14851;BMP180;7517;48.400;11.770;2023-11-22T08:29:14;97032.00;;;7.90
14851;BMP180;7517;48.400;11.770;2023-11-22T08:31:42;97032.00;;;7.90
14851;BMP180;7517;48.400;11.770;2023-11-22T08:34:09;97036.00;;;8.00
14851;BMP180;7517;48.400;11.770;2023-11-22T08:36:37;97036.00;;;8.00
14851;BMP180;7517;48.400;11.770;2023-11-22T08:39:04;97042.00;;;8.00
14851;BMP180;7517;48.400;11.770;2023-11-22T08:41:34;97050.00;;;8.00
14851;BMP180;7517;48.400;11.770;2023-11-22T08:44:03;97043.00;;;8.00
14851;BMP180;7517;48.400;11.770;2023-11-22T08:46:32;97050.00;;;8.00
14851;BMP180;7517;48.400;11.770;2023-11-22T08:48:59;97053.00;;;8.00
14851;BMP180;7517;48.400;11.770;2023-11-22T08:51:28;97066.00;;;8.00
14851;BMP180;7517;48.400;11.770;2023-11-22T08:53:55;97061.00;;;8.00
14851;BMP180;7517;48.400;11.770;2023-11-22T08:56:23;97047.00;;;8.00
14851;BMP180;7517;48.400;11.770;2023-11-22T08:58:50;97063.00;;;7.90
14851;BMP180;7517;48.400;11.770;2023-11-22T09:01:19;97071.00;;;7.90
14851;BMP180;7517;48.400;11.770;2023-11-22T09:03:47;97073.00;;;7.90
14851;BMP180;7517;48.400;11.770;2023-11-22T09:06:17;97073.00;;;7.90
14851;BMP180;7517;48.400;11.770;2023-11-22T09:08:44;97079.00;;;7.90
14851;BMP180;7517;48.400;11.770;2023-11-22T09:11:15;97089.00;;;7.90
14851;BMP180;7517;48.400;11.770;2023-11-22T09:13:45;97092.00;;;7.90
14851;BMP180;7517;48.400;11.770;2023-11-22T09:16:13;97091.00;;;8.00
14851;BMP180;7517;48.400;11.770;2023-11-22T09:18:44;97095.00;;;8.00
14851;BMP180;7517;48.400;11.770;2023-11-22T09:21:11;97101.00;;;8.00
14851;BMP180;7517;48.400;11.770;2023-11-22T09:23:38;97103.00;;;8.00
14851;BMP180;7517;48.400;11.770;2023-11-22T09:26:06;97107.00;;;8.00
14851;BMP180;7517;48.400;11.770;2023-11-22T09:28:33;97112.00;;;8.00
14851;BMP180;7517;48.400;11.770;2023-11-22T09:31:02;97118.00;;;8.00
14851;BMP180;7517;48.400;11.770;2023-11-22T09:33:32;97126.00;;;8.00
14851;BMP180;7517;48.400;11.770;2023-11-22T09:36:00;97128.00;;;8.10
14851;BMP180;7517;48.400;11.770;2023-11-22T09:38:30;97127.00;;;8.10
14851;BMP180;7517;48.400;11.770;2023-11-22T09:40:58;97130.00;;;8.10
14851;BMP180;7517;48.400;11.770;2023-11-22T09:43:26;97130.00;;;8.10
14851;BMP180;7517;48.400;11.770;2023-11-22T09:45:55;97127.00;;;8.10
14851;BMP180;7517;48.400;11.770;2023-11-22T09:48:24;97119.00;;;8.10
14851;BMP180;7517;48.400;11.770;2023-11-22T09:50:59;97116.00;;;8.10
14851;BMP180;7517;48.400;11.770;2023-11-22T09:53:33;97111.00;;;8.10
14851;BMP180;7517;48.400;11.770;2023-11-22T09:56:03;97114.00;;;8.10
14851;BMP180;7517;48.400;11.770;2023-11-22T09:58:34;97105.00;;;8.10
14851;BMP180;7517;48.400;11.770;2023-11-22T10:01:03;97103.00;;;8.20
14851;BMP180;7517;48.400;11.770;2023-11-22T10:03:31;97105.00;;;8.20
14851;BMP180;7517;48.400;11.770;2023-11-22T10:05:59;97107.00;;;8.30
14851;BMP180;7517;48.400;11.770;2023-11-22T10:08:32;97103.00;;;8.30
14851;BMP180;7517;48.400;11.770;2023-11-22T10:11:01;97100.00;;;8.40
14851;BMP180;7517;48.400;11.770;2023-11-22T10:13:30;97112.00;;;8.40
14851;BMP180;7517;48.400;11.770;2023-11-22T10:16:10;97109.00;;;8.40
14851;BMP180;7517;48.400;11.770;2023-11-22T10:18:41;97110.00;;;8.40
14851;BMP180;7517;48.400;11.770;2023-11-22T10:21:20;97117.00;;;8.40
14851;BMP180;7517;48.400;11.770;2023-11-22T10:23:49;97114.00;;;8.40
14851;BMP180;7517;48.400;11.770;2023-11-22T10:26:19;97114.00;;;8.40
14851;BMP180;7517;48.400;11.770;2023-11-22T10:28:46;97122.00;;;8.40
14851;BMP180;7517;48.400;11.770;2023-11-22T10:31:13;97123.00;;;8.50
14851;BMP180;7517;48.400;11.770;2023-11-22T10:33:42;97118.00;;;8.50
14851;BMP180;7517;48.400;11.770;2023-11-22T10:36:10;97121.00;;;8.50
14851;BMP180;7517;48.400;11.770;2023-11-22T10:38:38;97112.00;;;8.50
14851;BMP180;7517;48.400;11.770;2023-11-22T10:41:08;97130.00;;;8.50
14851;BMP180;7517;48.400;11.770;2023-11-22T10:43:37;97122.00;;;8.50
14851;BMP180;7517;48.400;11.770;2023-11-22T10:46:05;97128.00;;;8.50
14851;BMP180;7517;48.400;11.770;2023-11-22T10:48:35;97136.00;;;8.50
14851;BMP180;7517;48.400;11.770;2023-11-22T10:51:04;97144.00;;;8.60
14851;BMP180;7517;48.400;11.770;2023-11-22T10:53:34;97149.00;;;8.60
14851;BMP180;7517;48.400;11.770;2023-11-22T10:56:11;97148.00;;;8.60
14851;BMP180;7517;48.400;11.770;2023-11-22T10:58:47;97148.00;;;8.60
14851;BMP180;7517;48.400;11.770;2023-11-22T11:01:16;97149.00;;;8.60
14851;BMP180;7517;48.400;11.770;2023-11-22T11:03:51;97160.00;;;8.60
14851;BMP180;7517;48.400;11.770;2023-11-22T11:06:26;97163.00;;;8.60
14851;BMP180;7517;48.400;11.770;2023-11-22T11:09:00;97157.00;;;8.60
14851;BMP180;7517;48.400;11.770;2023-11-22T11:11:33;97167.00;;;8.70
14851;BMP180;7517;48.400;11.770;2023-11-22T11:14:03;97168.00;;;8.70
14851;BMP180;7517;48.400;11.770;2023-11-22T11:16:36;97162.00;;;8.70
14851;BMP180;7517;48.400;11.770;2023-11-22T11:19:05;97153.00;;;8.70
14851;BMP180;7517;48.400;11.770;2023-11-22T11:21:33;97160.00;;;8.70
14851;BMP180;7517;48.400;11.770;2023-11-22T11:24:01;97166.00;;;8.70
14851;BMP180;7517;48.400;11.770;2023-11-22T11:26:34;97162.00;;;8.70
14851;BMP180;7517;48.400;11.770;2023-11-22T11:29:03;97159.00;;;8.70
14851;BMP180;7517;48.400;11.770;2023-11-22T11:31:33;97158.00;;;8.80
14851;BMP180;7517;48.400;11.770;2023-11-22T11:34:05;97155.00;;;8.70
14851;BMP180;7517;48.400;11.770;2023-11-22T11:36:33;97160.00;;;8.80
14851;BMP180;7517;48.400;11.770;2023-11-22T11:39:08;97156.00;;;8.80
14851;BMP180;7517;48.400;11.770;2023-11-22T11:41:42;97155.00;;;8.80
14851;BMP180;7517;48.400;11.770;2023-11-22T11:44:13;97147.00;;;8.80
14851;BMP180;7517;48.400;11.770;2023-11-22T11:46:40;97151.00;;;8.90
14851;BMP180;7517;48.400;11.770;2023-11-22T11:49:12;97149.00;;;8.90
14851;BMP180;7517;48.400;11.770;2023-11-22T11:51:40;97142.00;;;8.90
14851;BMP180;7517;48.400;11.770;2023-11-22T11:54:08;97146.00;;;8.90
14851;BMP180;7517;48.400;11.770;2023-11-22T11:56:37;97141.00;;;8.90
14851;BMP180;7517;48.400;11.770;2023-11-22T11:59:07;97149.00;;;8.90
14851;BMP180;7517;48.400;11.770;2023-11-22T12:01:36;97153.00;;;8.80
14851;BMP180;7517;48.400;11.770;2023-11-22T12:04:03;97154.00;;;8.80
14851;BMP180;7517;48.400;11.770;2023-11-22T12:06:30;97160.00;;;8.90
14851;BMP180;7517;48.400;11.770;2023-11-22T12:09:00;97167.00;;;8.90
14851;BMP180;7517;48.400;11.770;2023-11-22T12:11:29;97175.00;;;8.90
14851;BMP180;7517;48.400;11.770;2023-11-22T12:13:58;97180.00;;;8.90
14851;BMP180;7517;48.400;11.770;2023-11-22T12:16:26;97189.00;;;8.90
14851;BMP180;7517;48.400;11.770;2023-11-22T12:18:54;97176.00;;;8.90
14851;BMP180;7517;48.400;11.770;2023-11-22T12:21:24;97191.00;;;8.90
14851;BMP180;7517;48.400;11.770;2023-11-22T12:23:54;97197.00;;;8.90
14851;BMP180;7517;48.400;11.770;2023-11-22T12:26:22;97183.00;;;8.90
14851;BMP180;7517;48.400;11.770;2023-11-22T12:28:50;97187.00;;;8.90
14851;BMP180;7517;48.400;11.770;2023-11-22T12:31:18;97192.00;;;8.90
14851;BMP180;7517;48.400;11.770;2023-11-22T12:33:47;97180.00;;;8.90
14851;BMP180;7517;48.400;11.770;2023-11-22T12:36:15;97179.00;;;8.90
14851;BMP180;7517;48.400;11.770;2023-11-22T12:38:43;97180.00;;;8.90
14851;BMP180;7517;48.400;11.770;2023-11-22T12:41:10;97181.00;;;8.90
14851;BMP180;7517;48.400;11.770;2023-11-22T12:43:38;97184.00;;;8.90
14851;BMP180;7517;48.400;11.770;2023-11-22T12:46:07;97186.00;;;8.90
14851;BMP180;7517;48.400;11.770;2023-11-22T12:48:37;97200.00;;;8.90
14851;BMP180;7517;48.400;11.770;2023-11-22T12:51:15;97193.00;;;8.80
14851;BMP180;7517;48.400;11.770;2023-11-22T12:53:45;97195.00;;;8.80
14851;BMP180;7517;48.400;11.770;2023-11-22T12:56:12;97206.00;;;8.80
14851;BMP180;7517;48.400;11.770;2023-11-22T12:58:39;97193.00;;;8.80
14851;BMP180;7517;48.400;11.770;2023-11-22T13:01:06;97191.00;;;8.70
14851;BMP180;7517;48.400;11.770;2023-11-22T13:03:34;97185.00;;;8.70
14851;BMP180;7517;48.400;11.770;2023-11-22T13:06:01;97188.00;;;8.70
14851;BMP180;7517;48.400;11.770;2023-11-22T13:08:31;97195.00;;;8.70
14851;BMP180;7517;48.400;11.770;2023-11-22T13:10:58;97201.00;;;8.70
14851;BMP180;7517;48.400;11.770;2023-11-22T13:13:27;97201.00;;;8.70
14851;BMP180;7517;48.400;11.770;2023-11-22T13:15:56;97204.00;;;8.60
14851;BMP180;7517;48.400;11.770;2023-11-22T13:18:24;97195.00;;;8.60
14851;BMP180;7517;48.400;11.770;2023-11-22T13:20:52;97197.00;;;8.70
14851;BMP180;7517;48.400;11.770;2023-11-22T13:23:19;97201.00;;;8.60
14851;BMP180;7517;48.400;11.770;2023-11-22T13:25:48;97200.00;;;8.60
14851;BMP180;7517;48.400;11.770;2023-11-22T13:28:15;97199.00;;;8.60
14851;BMP180;7517;48.400;11.770;2023-11-22T13:30:42;97185.00;;;8.60
14851;BMP180;7517;48.400;11.770;2023-11-22T13:33:09;97179.00;;;8.60
14851;BMP180;7517;48.400;11.770;2023-11-22T13:35:37;97178.00;;;8.60
14851;BMP180;7517;48.400;11.770;2023-11-22T13:38:05;97186.00;;;8.60
14851;BMP180;7517;48.400;11.770;2023-11-22T13:40:37;97188.00;;;8.60
14851;BMP180;7517;48.400;11.770;2023-11-22T13:43:07;97183.00;;;8.60
14851;BMP180;7517;48.400;11.770;2023-11-22T13:45:36;97185.00;;;8.60
14851;BMP180;7517;48.400;11.770;2023-11-22T13:48:05;97192.00;;;8.60
14851;BMP180;7517;48.400;11.770;2023-11-22T13:50:35;97197.00;;;8.60
14851;BMP180;7517;48.400;11.770;2023-11-22T13:53:03;97188.00;;;8.60
14851;BMP180;7517;48.400;11.770;2023-11-22T13:55:31;97197.00;;;8.60
14851;BMP180;7517;48.400;11.770;2023-11-22T13:58:00;97204.00;;;8.60
14851;BMP180;7517;48.400;11.770;2023-11-22T14:00:30;97207.00;;;8.60
14851;BMP180;7517;48.400;11.770;2023-11-22T14:03:02;97199.00;;;8.60
14851;BMP180;7517;48.400;11.770;2023-11-22T14:05:34;97190.00;;;8.60
14851;BMP180;7517;48.400;11.770;2023-11-22T14:08:04;97195.00;;;8.60
14851;BMP180;7517;48.400;11.770;2023-11-22T14:10:33;97199.00;;;8.60
14851;BMP180;7517;48.400;11.770;2023-11-22T14:13:00;97213.00;;;8.60
14851;BMP180;7517;48.400;11.770;2023-11-22T14:15:30;97210.00;;;8.60
14851;BMP180;7517;48.400;11.770;2023-11-22T14:17:57;97214.00;;;8.60
14851;BMP180;7517;48.400;11.770;2023-11-22T14:20:25;97213.00;;;8.60
14851;BMP180;7517;48.400;11.770;2023-11-22T14:22:53;97210.00;;;8.60
14851;BMP180;7517;48.400;11.770;2023-11-22T14:25:20;97214.00;;;8.60